Time,TemperatureF,DewpointF,PressureIn,WindDirection,WindDirectionDegrees,WindSpeedMPH,WindSpeedGustMPH,Humidity,HourlyPrecipIn,Conditions,Clouds,dailyrainin,SolarRadiationWatts/m^2,SoftwareType,DateUTC
2013-09-07 00:02:00,50.0,49.0,-100.00,NNE,29,7.0,12.0,95,0.01,,,-99.99,0.000000,,2013-09-07 08:02:00,
2013-09-07 00:12:00,50.0,49.0,-100.00,NNE,29,7.0,12.0,95,0.01,,,-99.99,0.000000,,2013-09-07 08:12:00,
2013-09-07 00:21:00,50.0,49.0,-100.00,NNE,29,7.0,12.0,95,0.01,,,-99.99,0.000000,,2013-09-07 08:21:00,
2013-09-07 00:53:00,50.0,49.0,-100.00,NNE,23,7.0,16.0,95,0.01,,,0.28,0.000000,,2013-09-07 08:53:00,
2013-09-07 01:01:00,50.0,49.0,-100.00,NNE,23,7.0,16.0,95,0.01,,,0.28,0.000000,,2013-09-07 09:01:00,
2013-09-07 01:12:00,50.0,49.0,-100.00,NNE,23,7.0,16.0,95,0.01,,,0.28,0.000000,,2013-09-07 09:12:00,
2013-09-07 01:21:00,50.0,49.0,-100.00,NNE,23,7.0,16.0,95,0.01,,,0.28,0.000000,,2013-09-07 09:21:00,
2013-09-07 01:52:00,50.0,49.0,-100.00,NNE,15,7.0,13.0,95,0.05,,,0.33,0.000000,,2013-09-07 09:52:00,
2013-09-07 02:01:00,50.0,49.0,-100.00,NNE,15,7.0,13.0,95,0.05,,,0.33,0.000000,,2013-09-07 10:01:00,
2013-09-07 02:11:00,50.0,49.0,-100.00,NNE,15,7.0,13.0,95,0.05,,,0.33,0.000000,,2013-09-07 10:11:00,
2013-09-07 02:21:00,50.0,49.0,-100.00,NNE,15,7.0,13.0,95,0.05,,,0.33,0.000000,,2013-09-07 10:21:00,
2013-09-07 02:51:00,50.0,49.0,-100.00,NNE,21,6.0,11.0,95,0.12,,,0.45,0.000000,,2013-09-07 10:51:00,
2013-09-07 03:03:00,50.0,49.0,-100.00,NNE,21,6.0,11.0,95,0.12,,,0.45,0.000000,,2013-09-07 11:03:00,
2013-09-07 03:13:00,50.0,49.0,-100.00,NNE,21,6.0,11.0,95,0.12,,,0.45,0.000000,,2013-09-07 11:13:00,
2013-09-07 03:23:00,50.0,49.0,-100.00,NNE,21,6.0,11.0,95,0.12,,,0.45,0.000000,,2013-09-07 11:23:00,
2013-09-07 03:52:00,50.0,49.0,-100.00,NNE,28,7.0,13.0,96,0.11,,,0.56,0.000000,,2013-09-07 11:52:00,
2013-09-07 04:02:00,50.0,49.0,-100.00,NNE,28,7.0,13.0,96,0.11,,,0.56,0.000000,,2013-09-07 12:02:00,
2013-09-07 04:12:00,50.0,49.0,-100.00,NNE,28,7.0,13.0,96,0.11,,,0.56,0.000000,,2013-09-07 12:12:00,
2013-09-07 04:21:00,50.0,49.0,-100.00,NNE,28,7.0,13.0,96,0.11,,,0.56,0.000000,,2013-09-07 12:21:00,
2013-09-07 04:52:00,50.0,49.0,-100.00,NE,38,4.0,13.0,96,0.09,,,0.65,0.000000,,2013-09-07 12:52:00,
2013-09-07 05:02:00,50.0,49.0,-100.00,NE,38,4.0,13.0,96,0.09,,,0.65,0.000000,,2013-09-07 13:02:00,
2013-09-07 05:11:00,50.0,49.0,-100.00,NE,38,4.0,13.0,96,0.09,,,0.65,0.000000,,2013-09-07 13:11:00,
2013-09-07 05:21:00,50.0,49.0,-100.00,NE,38,4.0,13.0,96,0.09,,,0.65,0.000000,,2013-09-07 13:21:00,
2013-09-07 05:52:00,49.0,48.0,-100.00,NE,51,0.0,3.0,97,0.04,,,0.69,0.000000,,2013-09-07 13:52:00,
2013-09-07 06:02:00,49.0,48.0,-100.00,NE,51,0.0,3.0,97,0.04,,,0.69,0.000000,,2013-09-07 14:02:00,
2013-09-07 06:11:00,49.0,48.0,-100.00,NE,51,0.0,3.0,97,0.04,,,0.69,0.000000,,2013-09-07 14:11:00,
2013-09-07 06:22:00,49.0,48.0,-100.00,NE,51,0.0,3.0,97,0.04,,,0.69,0.000000,,2013-09-07 14:22:00,
2013-09-07 06:52:00,49.0,48.0,-100.00,ENE,75,1.0,2.0,98,0.02,,,0.71,0.000000,,2013-09-07 14:52:00,
2013-09-07 07:02:00,49.0,48.0,-100.00,ENE,75,1.0,2.0,98,0.02,,,0.71,0.000000,,2013-09-07 15:02:00,
2013-09-07 07:11:00,49.0,48.0,-100.00,ENE,75,1.0,2.0,98,0.02,,,0.71,0.000000,,2013-09-07 15:11:00,
2013-09-07 07:22:00,49.0,48.0,-100.00,ENE,75,1.0,2.0,98,0.02,,,0.71,0.000000,,2013-09-07 15:22:00,
2013-09-07 07:54:00,49.0,48.0,-100.00,SW,222,0.0,3.0,98,0.01,,,0.71,1.000000,,2013-09-07 15:54:00,
2013-09-07 08:03:00,49.0,48.0,-100.00,SW,222,0.0,3.0,98,0.01,,,0.71,1.000000,,2013-09-07 16:03:00,
2013-09-07 08:12:00,49.0,48.0,-100.00,SW,222,0.0,3.0,98,0.01,,,0.71,1.000000,,2013-09-07 16:12:00,
2013-09-07 08:24:00,49.0,48.0,-100.00,SW,222,0.0,3.0,98,0.01,,,0.71,1.000000,,2013-09-07 16:24:00,
2013-09-07 08:53:00,49.0,48.0,-100.00,SSE,164,0.0,2.0,98,0.00,,,0.61,13.000000,,2013-09-07 16:53:00,
2013-09-07 09:04:00,49.0,48.0,-100.00,SSE,164,0.0,2.0,98,0.00,,,0.61,13.000000,,2013-09-07 17:04:00,
2013-09-07 09:12:00,49.0,48.0,-100.00,SSE,164,0.0,2.0,98,0.00,,,0.61,13.000000,,2013-09-07 17:12:00,
2013-09-07 09:24:00,49.0,48.0,-100.00,SSE,164,0.0,2.0,98,0.00,,,0.61,13.000000,,2013-09-07 17:24:00,
2013-09-07 09:52:00,50.0,49.0,-100.00,SW,225,0.0,2.0,98,0.00,,,0.55,37.000000,,2013-09-07 17:52:00,
2013-09-07 10:01:00,50.0,49.0,-100.00,SW,225,0.0,2.0,98,0.00,,,0.55,37.000000,,2013-09-07 18:01:00,
2013-09-07 10:13:00,50.0,49.0,-100.00,SW,225,0.0,2.0,98,0.00,,,0.55,37.000000,,2013-09-07 18:13:00,
2013-09-07 10:21:00,50.0,49.0,-100.00,SW,225,0.0,2.0,98,0.00,,,0.55,37.000000,,2013-09-07 18:21:00,
2013-09-07 10:52:00,52.0,51.0,-100.00,East,79,0.0,1.0,97,0.00,,,0.54,66.000000,,2013-09-07 18:52:00,
2013-09-07 11:02:00,52.0,51.0,-100.00,East,79,0.0,1.0,97,0.00,,,0.54,66.000000,,2013-09-07 19:02:00,
2013-09-07 11:11:00,52.0,51.0,-100.00,East,79,0.0,1.0,97,0.00,,,0.54,66.000000,,2013-09-07 19:11:00,
2013-09-07 11:21:00,52.0,51.0,-100.00,East,79,0.0,1.0,97,0.00,,,0.54,66.000000,,2013-09-07 19:21:00,
2013-09-07 11:52:00,53.0,52.0,-100.00,SSW,194,1.0,5.0,95,0.00,,,0.52,91.000000,,2013-09-07 19:52:00,
2013-09-07 12:02:00,53.0,52.0,-100.00,SSW,194,1.0,5.0,95,0.00,,,0.52,91.000000,,2013-09-07 20:02:00,
2013-09-07 12:11:00,53.0,52.0,-100.00,SSW,194,1.0,5.0,95,0.00,,,0.52,91.000000,,2013-09-07 20:11:00,
2013-09-07 12:22:00,53.0,52.0,-100.00,SSW,194,1.0,5.0,95,0.00,,,0.52,91.000000,,2013-09-07 20:22:00,
2013-09-07 12:53:00,54.0,52.0,-100.00,SSE,164,1.0,5.0,93,0.01,,,0.49,148.000000,,2013-09-07 20:53:00,
2013-09-07 13:02:00,54.0,52.0,-100.00,SSE,164,1.0,5.0,93,0.01,,,0.49,148.000000,,2013-09-07 21:02:00,
2013-09-07 13:12:00,54.0,52.0,-100.00,SSE,164,1.0,5.0,93,0.01,,,0.49,148.000000,,2013-09-07 21:12:00,
2013-09-07 13:22:00,54.0,52.0,-100.00,SSE,164,1.0,5.0,93,0.01,,,0.49,148.000000,,2013-09-07 21:22:00,
2013-09-07 13:54:00,55.0,52.0,-100.00,SSE,160,1.0,5.0,91,0.01,,,0.50,173.000000,,2013-09-07 21:54:00,
2013-09-07 14:04:00,55.0,52.0,-100.00,SSE,160,1.0,5.0,91,0.01,,,0.50,173.000000,,2013-09-07 22:04:00,
2013-09-07 14:13:00,55.0,52.0,-100.00,SSE,160,1.0,5.0,91,0.01,,,0.50,173.000000,,2013-09-07 22:13:00,
2013-09-07 14:24:00,55.0,52.0,-100.00,SSE,160,1.0,5.0,91,0.01,,,0.50,173.000000,,2013-09-07 22:24:00,
2013-09-07 14:53:00,56.0,52.0,-100.00,SSE,159,0.0,4.0,88,0.00,,,0.50,197.000000,,2013-09-07 22:53:00,
2013-09-07 15:03:00,56.0,52.0,-100.00,SSE,159,0.0,4.0,88,0.00,,,0.50,197.000000,,2013-09-07 23:03:00,
2013-09-07 15:12:00,56.0,52.0,-100.00,SSE,159,0.0,4.0,88,0.00,,,0.50,197.000000,,2013-09-07 23:12:00,
2013-09-07 15:23:00,56.0,52.0,-100.00,SSE,159,0.0,4.0,88,0.00,,,0.50,197.000000,,2013-09-07 23:23:00,
2013-09-07 15:53:00,58.0,53.0,-100.00,WSW,237,2.0,4.0,84,0.00,,,0.50,250.000000,,2013-09-07 23:53:00,
2013-09-07 16:02:00,58.0,53.0,-100.00,WSW,237,2.0,4.0,84,0.00,,,0.50,250.000000,,2013-09-08 00:02:00,
2013-09-07 16:11:00,58.0,53.0,-100.00,WSW,237,2.0,4.0,84,0.00,,,0.50,250.000000,,2013-09-08 00:11:00,
2013-09-07 16:22:00,58.0,53.0,-100.00,WSW,237,2.0,4.0,84,0.00,,,0.50,250.000000,,2013-09-08 00:22:00,
2013-09-07 16:52:00,58.0,52.0,-100.00,SW,233,0.0,4.0,80,0.00,,,0.50,212.000000,,2013-09-08 00:52:00,
2013-09-07 17:01:00,58.0,52.0,-100.00,SW,233,0.0,4.0,80,0.00,,,0.50,212.000000,,2013-09-08 01:01:00,
2013-09-07 17:11:00,58.0,52.0,-100.00,SW,233,0.0,4.0,80,0.00,,,0.50,212.000000,,2013-09-08 01:11:00,
2013-09-07 17:22:00,58.0,52.0,-100.00,SW,233,0.0,4.0,80,0.00,,,0.50,212.000000,,2013-09-08 01:22:00,
2013-09-07 17:52:00,58.0,53.0,-100.00,West,262,0.0,3.0,83,0.00,,,0.50,133.000000,,2013-09-08 01:52:00,
2013-09-07 18:02:00,58.0,53.0,-100.00,West,262,0.0,3.0,83,0.00,,,0.50,133.000000,,2013-09-08 02:02:00,
2013-09-07 18:11:00,58.0,53.0,-100.00,West,262,0.0,3.0,83,0.00,,,0.50,133.000000,,2013-09-08 02:11:00,
2013-09-07 18:22:00,58.0,53.0,-100.00,West,262,0.0,3.0,83,0.00,,,0.50,133.000000,,2013-09-08 02:22:00,
2013-09-07 18:52:00,57.0,53.0,-100.00,SW,230,2.0,4.0,88,0.00,,,0.50,126.000000,,2013-09-08 02:52:00,
2013-09-07 19:02:00,57.0,53.0,-100.00,SW,230,2.0,4.0,88,0.00,,,0.50,126.000000,,2013-09-08 03:02:00,
2013-09-07 19:12:00,57.0,53.0,-100.00,SW,230,2.0,4.0,88,0.00,,,0.50,126.000000,,2013-09-08 03:12:00,
2013-09-07 19:22:00,57.0,53.0,-100.00,SW,230,2.0,4.0,88,0.00,,,0.50,126.000000,,2013-09-08 03:22:00,
2013-09-07 19:54:00,55.0,52.0,-100.00,WSW,249,1.0,6.0,88,0.00,,,-99.99,83.000000,,2013-09-08 03:54:00,
2013-09-07 20:02:00,-999.0,-99.9,-100.00,WSW,249,1.0,6.0,-999,-99.99,,,-99.99,83.000000,,2013-09-08 04:02:00,
2013-09-07 20:14:00,55.0,52.0,-100.00,WSW,249,1.0,6.0,88,0.00,,,-99.99,83.000000,,2013-09-08 04:14:00,
2013-09-07 20:24:00,55.0,52.0,-100.00,WSW,249,1.0,6.0,88,0.00,,,-99.99,83.000000,,2013-09-08 04:24:00,
2013-09-07 20:54:00,53.0,50.0,-100.00,WSW,238,2.0,5.0,91,0.00,,,0.50,26.000000,,2013-09-08 04:54:00,
2013-09-07 21:03:00,53.0,50.0,-100.00,WSW,238,2.0,5.0,91,0.00,,,0.50,26.000000,,2013-09-08 05:03:00,
2013-09-07 21:12:00,53.0,50.0,-100.00,WSW,238,2.0,5.0,91,0.00,,,0.50,26.000000,,2013-09-08 05:12:00,
2013-09-07 21:23:00,53.0,50.0,-100.00,WSW,238,2.0,5.0,91,0.00,,,0.50,26.000000,,2013-09-08 05:23:00,
2013-09-07 21:52:00,52.0,51.0,-100.00,WSW,238,2.0,5.0,95,0.00,,,0.49,5.000000,,2013-09-08 05:52:00,
2013-09-07 22:03:00,52.0,51.0,-100.00,WSW,238,2.0,5.0,95,0.00,,,0.49,5.000000,,2013-09-08 06:03:00,
2013-09-07 22:13:00,52.0,51.0,-100.00,WSW,238,2.0,5.0,95,0.00,,,0.49,5.000000,,2013-09-08 06:13:00,
2013-09-07 22:21:00,52.0,51.0,-100.00,WSW,238,2.0,5.0,95,0.00,,,0.49,5.000000,,2013-09-08 06:21:00,
2013-09-07 22:53:00,51.0,50.0,-100.00,SSW,193,1.0,4.0,97,0.06,,,-99.99,0.000000,,2013-09-08 06:53:00,
2013-09-07 23:01:00,51.0,50.0,-100.00,SSW,193,1.0,4.0,97,0.06,,,-99.99,0.000000,,2013-09-08 07:01:00,
2013-09-07 23:12:00,51.0,50.0,-100.00,SSW,193,1.0,4.0,97,0.06,,,-99.99,0.000000,,2013-09-08 07:12:00,
2013-09-07 23:23:00,51.0,50.0,-100.00,SSW,193,1.0,4.0,97,0.06,,,-99.99,0.000000,,2013-09-08 07:23:00,
2013-09-07 23:52:00,50.0,49.0,-100.00,SSW,204,2.0,4.0,98,0.06,,,0.59,0.000000,,2013-09-08 07:52:00,